Airfield :
LOGIN :

Register | Disclaimer

   EN    FR    IT 

 










Legend :    VFR   Marginal VFR   IFR   Intensive IFR   Very Intensive IFR
Visi :
Ceiling :
>= 8 km
>= 3000ft
5 to 8 km
1000 to 3000 ft
1500m to 5 km
500 to 1000 ft
800 to 1500m
200 to 500 ft
< 800m
< 200 ft
Symbols :   Thunderstorms  Fog  Heavy snow  Heavy precipitations  Wind > 20 kt
SIGMETs :     Misc.  Thunderstorms  Icing  Turbulence  Mountain Waves  Volcanic Ashes






- Airport Elevation : 6 ft
- IATA code : PSA


LIRP - Galileo Galilei Pisa

CURRENT METAR :
  • 230845Z 31003KT CAVOK 30/24 Q1014 NOSIG

EXPIRED METARs :
  • 230815Z 30002KT CAVOK 29/24 Q1014 NOSIG
  • 230745Z 08002KT CAVOK 28/24 Q1014 NOSIG
  • 230715Z 21002KT CAVOK 27/24 Q1014 NOSIG
  • 230645Z 13002KT CAVOK 26/25 Q1014 NOSIG
  • 230615Z 13003KT CAVOK 25/24 Q1014 NOSIG
  • 230545Z 14004KT CAVOK 24/23 Q1014 NOSIG
  • 230515Z 13002KT CAVOK 23/22 Q1014 NOSIG
  • 230445Z 08002KT CAVOK 23/22 Q1014 NOSIG
  • 230415Z 11003KT CAVOK 22/21 Q1014 NOSIG

TAF TAF LIRP
Valid from the 23 at 06:00 until the 24 at 06:00 UTC


230500Z 2306/2406 VRB03KT CAVOK
BECMG 2310/2312 30012KT
BECMG 2321/2323 12003KT 9999 SCT015



MET'MAP, your aeronautical weather chart ! - Copyright ORBIFLY December 2007 - Disclaimer

ORBIFLY MET'MAP TEAM :

Programming & Development : Alexandra Zaïnal
Original concept : Baudouin d'Aumeries
Technical & hardware support : Manuel Goepfert
Assistance : Marc-Olivier Méhu




SOURCES & CREDITS :

   NOAA